Enter the Airport ICAO Code

Search by Airport or City

Current Weather

LGTS | Thessaloniki Airport "Macedonia"

Thessaloniki, Greece

Last Update 16 Minutes Ago

Partly Cloudy Sky

Temperature of 11 ēC

Calm Wind

Temperature

11 ēC

Dew Point Temperature

08 ēC

Relative Humidity

81.8 %

Wind Direction

None

Wind Velocity

0 km/h (0 kt)

Gusts

None

Visibility

Greater than 10 Kilometers

Sea Level Pressure

1018 hPa (Hectopascals)

Layers of Clouds

30% to 60% of Sky Covered from 914 mts (3000 ft) Above Ground Level.

METAR LGTS 090950Z 00000KT 9999 SCT030 11/08 Q1018 NOSIG

Weather Forecast

LGTS | Thessaloniki Airport "Macedonia"

Thessaloniki, Greece

Forecast valid for the next 20 Hours

From now on it is expected:

Mostly Cloudy Sky

Light Winds from Variable Directions

From now on it is expected 6 hours with intermittent periods of:

Rain

In 2 to 4 hours it is expected the begining of:

Moderate Winds from SouthEast

Maximum Temperature

No Data

Minimum Temperature

No Data

TAF LGTS 090500Z 0906/1006 VRB03KT 9999 FEW010 BKN025 PROB30 TEMPO 0906/0916 6000 RA BECMG 0912/0914 14015KT